createdAt,value
2022-09-11T00:00:53.064Z,17.48
2022-09-11T00:03:21.446Z,15.77
2022-09-11T00:05:47.875Z,14.40
2022-09-11T00:08:16.922Z,15.88
2022-09-11T00:10:44.497Z,15.15
2022-09-11T00:13:15.315Z,15.85
2022-09-11T00:15:44.393Z,14.73
2022-09-11T00:18:17.567Z,15.55
2022-09-11T00:20:49.846Z,13.95
2022-09-11T00:23:20.924Z,15.25
2022-09-11T00:25:48.603Z,17.38
2022-09-11T00:28:25.430Z,14.77
2022-09-11T00:31:07.325Z,15.93
2022-09-11T00:33:35.159Z,14.90
2022-09-11T00:36:07.775Z,15.70
2022-09-11T00:38:36.399Z,13.05
2022-09-11T00:41:06.384Z,14.47
2022-09-11T00:43:55.173Z,16.23
2022-09-11T00:46:31.319Z,15.52
2022-09-11T00:49:00.196Z,15.15
2022-09-11T00:51:33.384Z,13.82
2022-09-11T00:54:02.730Z,15.83
2022-09-11T00:56:31.997Z,16.88
2022-09-11T00:58:59.297Z,15.18
2022-09-11T01:01:26.009Z,16.70
2022-09-11T01:03:52.361Z,16.05
2022-09-11T01:06:20.987Z,16.40
2022-09-11T01:08:47.376Z,15.52
2022-09-11T01:11:38.700Z,17.83
2022-09-11T01:14:23.874Z,15.32
2022-09-11T01:17:34.971Z,13.43
2022-09-11T01:20:43.796Z,16.67
2022-09-11T01:23:48.070Z,16.52
2022-09-11T01:26:35.396Z,14.23
2022-09-11T01:29:24.034Z,17.27
2022-09-11T01:31:59.160Z,16.40
2022-09-11T01:34:32.908Z,18.10
2022-09-11T01:37:05.784Z,15.80
2022-09-11T01:39:38.647Z,13.98
2022-09-11T01:42:14.655Z,16.75
2022-09-11T01:44:56.264Z,15.90
2022-09-11T01:47:23.974Z,14.90
2022-09-11T01:49:56.100Z,14.43
2022-09-11T01:52:28.098Z,17.13
2022-09-11T01:55:01.241Z,14.75
2022-09-11T01:57:37.667Z,13.88
2022-09-11T02:00:09.740Z,13.97
2022-09-11T02:02:42.862Z,15.32
2022-09-11T02:05:16.643Z,17.08
2022-09-11T02:07:56.722Z,14.20
2022-09-11T02:10:33.744Z,15.55
2022-09-11T02:13:12.076Z,13.73
2022-09-11T02:15:52.301Z,14.82
2022-09-11T02:18:43.056Z,15.02
2022-09-11T02:21:10.138Z,15.52
2022-09-11T02:23:36.526Z,15.00
2022-09-11T02:26:05.521Z,14.13
2022-09-11T02:28:32.024Z,15.13
2022-09-11T02:30:58.651Z,16.00
2022-09-11T02:33:31.345Z,15.10
2022-09-11T02:36:14.196Z,13.23
2022-09-11T02:38:53.921Z,15.20
2022-09-11T02:41:41.808Z,13.27
2022-09-11T02:44:21.253Z,12.95
2022-09-11T02:47:32.893Z,15.55
2022-09-11T02:50:05.157Z,11.15
2022-09-11T02:52:58.526Z,12.00
2022-09-11T02:55:38.516Z,14.43
2022-09-11T02:58:29.079Z,11.93
2022-09-11T03:01:00.227Z,12.88
2022-09-11T03:03:26.884Z,9.75
2022-09-11T03:05:53.812Z,11.23
2022-09-11T03:08:20.348Z,14.38
2022-09-11T03:10:46.741Z,13.93
2022-09-11T03:13:14.775Z,13.40
2022-09-11T03:15:43.553Z,14.93
2022-09-11T03:18:11.499Z,13.40
2022-09-11T03:20:39.066Z,13.65
2022-09-11T03:23:10.634Z,15.68
2022-09-11T03:25:37.086Z,14.93
2022-09-11T03:28:04.576Z,15.30
2022-09-11T03:30:30.976Z,16.65
2022-09-11T03:32:58.429Z,15.25
2022-09-11T03:35:25.233Z,15.13
2022-09-11T03:37:51.569Z,14.68
2022-09-11T03:40:18.842Z,14.00
2022-09-11T03:42:45.170Z,15.47
2022-09-11T03:45:12.167Z,13.88
2022-09-11T03:47:38.608Z,13.88
2022-09-11T03:50:05.222Z,14.07
2022-09-11T03:52:31.712Z,13.10
2022-09-11T03:54:58.136Z,15.63
2022-09-11T03:57:24.616Z,15.80
2022-09-11T03:59:50.936Z,15.07
2022-09-11T04:02:18.634Z,15.25
2022-09-11T04:04:44.999Z,12.45
2022-09-11T04:07:11.369Z,12.77
2022-09-11T04:09:37.803Z,14.80
2022-09-11T04:12:04.293Z,14.95
2022-09-11T04:14:30.714Z,15.77
2022-09-11T04:16:57.098Z,15.98
2022-09-11T04:19:23.696Z,15.40
2022-09-11T04:21:50.033Z,13.70
2022-09-11T04:24:16.426Z,15.65
2022-09-11T04:26:42.771Z,13.85
2022-09-11T04:29:09.118Z,16.02
2022-09-11T04:31:36.198Z,13.48
2022-09-11T04:34:02.715Z,12.25
2022-09-11T04:36:29.963Z,13.23
2022-09-11T04:39:00.081Z,13.32
2022-09-11T04:41:27.892Z,17.45
2022-09-11T04:44:03.870Z,14.32
2022-09-11T04:46:31.494Z,15.57
2022-09-11T04:49:02.191Z,13.18
2022-09-11T04:51:30.951Z,17.38
2022-09-11T04:53:59.650Z,15.27
2022-09-11T04:56:29.184Z,17.70
2022-09-11T04:58:58.082Z,18.77
2022-09-11T05:01:27.072Z,19.35
2022-09-11T05:03:53.801Z,23.63
2022-09-11T05:06:20.146Z,25.05
2022-09-11T05:08:46.932Z,28.00
2022-09-11T05:11:14.959Z,24.80
2022-09-11T05:13:42.010Z,27.38
2022-09-11T05:16:10.912Z,27.35
2022-09-11T05:18:41.959Z,38.60
2022-09-11T05:21:15.118Z,23.75
2022-09-11T05:23:42.886Z,32.72
2022-09-11T05:26:24.477Z,38.70
2022-09-11T05:28:59.550Z,24.77
2022-09-11T05:31:26.759Z,20.83
2022-09-11T05:33:55.943Z,19.48
2022-09-11T05:36:23.299Z,19.83
2022-09-11T05:38:49.636Z,20.15
2022-09-11T05:41:17.366Z,43.33
2022-09-11T05:43:43.904Z,17.48
2022-09-11T05:46:16.245Z,18.30
2022-09-11T05:48:43.188Z,16.00
2022-09-11T05:51:15.437Z,22.17
2022-09-11T05:53:42.237Z,15.27
2022-09-11T05:56:11.716Z,22.25
2022-09-11T05:58:38.225Z,19.77
2022-09-11T06:01:12.526Z,24.42
2022-09-11T06:03:39.547Z,28.10
2022-09-11T06:06:08.659Z,17.50
2022-09-11T06:08:36.053Z,31.80
2022-09-11T06:11:06.801Z,17.45
2022-09-11T06:13:35.788Z,12.32
2022-09-11T06:16:05.480Z,14.15
2022-09-11T06:18:32.873Z,17.17
2022-09-11T06:21:01.969Z,16.50
2022-09-11T06:23:29.538Z,13.07
2022-09-11T06:26:05.128Z,15.98
2022-09-11T06:28:31.584Z,11.68
2022-09-11T06:30:58.186Z,11.70
2022-09-11T06:33:24.897Z,10.75
2022-09-11T06:35:58.759Z,10.65
2022-09-11T06:38:26.728Z,15.82
2022-09-11T06:40:53.815Z,11.80
2022-09-11T06:43:20.953Z,17.25
2022-09-11T06:45:50.253Z,16.50
2022-09-11T06:48:18.862Z,11.40
2022-09-11T06:50:45.650Z,10.65
2022-09-11T06:53:13.031Z,11.68
2022-09-11T06:55:40.346Z,20.67
2022-09-11T06:58:08.776Z,16.75
2022-09-11T07:00:36.550Z,15.30
2022-09-11T07:03:04.464Z,12.27
2022-09-11T07:05:31.211Z,21.42
2022-09-11T07:07:57.747Z,11.75
2022-09-11T07:10:24.765Z,14.52
2022-09-11T07:12:54.666Z,13.27
2022-09-11T07:15:21.581Z,14.82
2022-09-11T07:17:48.629Z,13.77
2022-09-11T07:20:15.575Z,12.63
2022-09-11T07:22:43.685Z,10.60
2022-09-11T07:25:10.000Z,11.93
2022-09-11T07:27:36.310Z,11.93
2022-09-11T07:30:03.190Z,11.55
2022-09-11T07:32:34.036Z,10.93
2022-09-11T07:35:02.487Z,11.95
2022-09-11T07:37:28.788Z,13.40
2022-09-11T07:39:55.181Z,14.70
2022-09-11T07:42:21.566Z,12.77
2022-09-11T07:44:47.949Z,12.48
2022-09-11T07:47:14.323Z,14.20
2022-09-11T07:49:40.721Z,13.43
2022-09-11T07:52:07.139Z,14.75
2022-09-11T07:54:33.473Z,13.88
2022-09-11T07:56:59.798Z,14.50
2022-09-11T07:59:26.132Z,15.85
2022-09-11T08:01:53.161Z,14.03
2022-09-11T08:04:19.629Z,16.85
2022-09-11T08:06:46.088Z,16.30
2022-09-11T08:09:15.524Z,14.57
2022-09-11T08:11:45.839Z,14.68
2022-09-11T08:14:13.374Z,14.10
2022-09-11T08:16:39.824Z,14.45
2022-09-11T08:19:07.867Z,14.77
2022-09-11T08:21:34.952Z,14.30
2022-09-11T08:24:01.795Z,14.98
2022-09-11T08:26:30.274Z,13.43
2022-09-11T08:28:58.577Z,10.02
2022-09-11T08:31:26.854Z,12.63
2022-09-11T08:33:54.745Z,13.02
2022-09-11T08:36:22.582Z,13.00
2022-09-11T08:38:49.000Z,10.03
2022-09-11T08:41:28.767Z,9.77
2022-09-11T08:44:09.972Z,11.65
2022-09-11T08:46:41.065Z,10.32
2022-09-11T08:49:23.704Z,9.55
2022-09-11T08:51:52.012Z,10.10
2022-09-11T08:54:31.873Z,11.27
2022-09-11T08:57:31.590Z,10.95
2022-09-11T09:00:32.028Z,9.10
2022-09-11T09:03:36.692Z,9.10
2022-09-11T09:06:30.866Z,7.83
2022-09-11T09:09:00.672Z,6.90
2022-09-11T09:12:03.907Z,8.82
2022-09-11T09:14:42.119Z,6.60
2022-09-11T09:17:20.027Z,7.40
2022-09-11T09:20:10.979Z,5.60
2022-09-11T09:22:46.405Z,6.90
2022-09-11T09:25:16.562Z,9.65
2022-09-11T09:27:49.157Z,4.93
2022-09-11T09:30:24.721Z,5.00
2022-09-11T09:33:13.824Z,4.77
2022-09-11T09:35:45.108Z,3.97
2022-09-11T09:38:20.954Z,5.60
2022-09-11T09:41:27.009Z,4.97
2022-09-11T09:44:19.498Z,5.80
2022-09-11T09:46:53.121Z,5.50
2022-09-11T09:49:25.791Z,5.40
2022-09-11T09:51:55.540Z,5.28
2022-09-11T09:54:26.704Z,5.25
2022-09-11T09:57:04.390Z,6.10
2022-09-11T09:59:52.897Z,7.50
2022-09-11T10:02:38.567Z,6.70
2022-09-11T10:05:23.926Z,5.32
2022-09-11T10:08:01.491Z,9.55
2022-09-11T10:10:31.668Z,5.80
2022-09-11T10:13:18.751Z,4.93
2022-09-11T10:15:49.038Z,5.18
2022-09-11T10:18:45.163Z,4.78
2022-09-11T10:21:11.607Z,5.82
2022-09-11T10:23:52.621Z,4.00
2022-09-11T10:26:37.988Z,6.87
2022-09-11T10:29:19.322Z,6.60
2022-09-11T10:31:50.885Z,7.32
2022-09-11T10:34:20.301Z,6.75
2022-09-11T10:36:55.083Z,4.28
2022-09-11T10:39:23.110Z,6.53
2022-09-11T10:41:54.420Z,4.00
2022-09-11T10:44:22.528Z,6.10
2022-09-11T10:47:06.280Z,4.13
2022-09-11T10:49:33.855Z,5.10
2022-09-11T10:52:09.229Z,7.33
2022-09-11T10:54:59.690Z,3.88
2022-09-11T10:57:36.684Z,5.63
2022-09-11T11:00:12.480Z,4.03
2022-09-11T11:02:41.135Z,4.65
2022-09-11T11:05:13.779Z,5.03
2022-09-11T11:07:58.265Z,3.17
2022-09-11T11:10:51.105Z,3.45
2022-09-11T11:13:18.133Z,4.85
2022-09-11T11:15:50.791Z,4.00
2022-09-11T11:18:33.701Z,2.90
2022-09-11T11:21:17.756Z,2.90
2022-09-11T11:24:05.806Z,3.38
2022-09-11T11:26:49.673Z,2.83
2022-09-11T11:29:25.281Z,2.50
2022-09-11T11:32:20.866Z,3.67
2022-09-11T11:35:21.297Z,4.18
2022-09-11T11:37:50.035Z,3.65
2022-09-11T11:40:34.439Z,3.63
2022-09-11T11:43:10.221Z,4.53
2022-09-11T11:46:10.810Z,4.53
2022-09-11T11:48:53.546Z,2.40
2022-09-11T11:51:27.059Z,2.53
2022-09-11T11:54:10.541Z,3.40
2022-09-11T11:57:02.101Z,4.43
2022-09-11T11:59:47.264Z,3.13
2022-09-11T12:02:22.584Z,4.15
2022-09-11T12:05:05.281Z,3.15
2022-09-11T12:07:33.830Z,2.72
2022-09-11T12:10:02.559Z,3.05
2022-09-11T12:12:33.777Z,3.30
2022-09-11T12:15:04.972Z,2.00
2022-09-11T12:17:34.086Z,2.67
2022-09-11T12:20:09.768Z,2.88
2022-09-11T12:22:50.050Z,3.45
2022-09-11T12:25:19.084Z,1.90
2022-09-11T12:27:55.382Z,2.28
2022-09-11T12:30:25.475Z,1.73
2022-09-11T12:32:57.493Z,2.45
2022-09-11T12:35:34.747Z,2.80
2022-09-11T12:38:06.807Z,2.43
2022-09-11T12:40:39.608Z,2.17
2022-09-11T12:43:17.485Z,1.33
2022-09-11T12:45:44.354Z,1.83
2022-09-11T12:48:38.559Z,2.78
2022-09-11T12:51:07.322Z,3.73
2022-09-11T12:53:37.200Z,1.45
2022-09-11T12:56:06.554Z,3.08
2022-09-11T12:58:40.336Z,3.22
2022-09-11T13:01:15.681Z,2.35
2022-09-11T13:04:00.963Z,3.63
2022-09-11T13:06:47.452Z,2.28
2022-09-11T13:09:24.385Z,2.13
2022-09-11T13:11:53.404Z,1.73
2022-09-11T13:14:47.213Z,1.92
2022-09-11T13:17:18.453Z,1.93
2022-09-11T13:19:44.884Z,2.22
2022-09-11T13:22:23.539Z,2.40
2022-09-11T13:24:50.041Z,2.17
2022-09-11T13:27:24.547Z,3.05
2022-09-11T13:29:54.905Z,2.30
2022-09-11T13:32:22.314Z,1.98
2022-09-11T13:35:01.804Z,2.60
2022-09-11T13:37:37.508Z,3.88
2022-09-11T13:40:07.334Z,2.88
2022-09-11T13:42:35.858Z,3.03
2022-09-11T13:45:03.664Z,3.72
2022-09-11T13:47:31.535Z,5.95
2022-09-11T13:50:02.227Z,2.65
2022-09-11T13:52:32.030Z,5.47
2022-09-11T13:55:01.672Z,3.70
2022-09-11T13:57:31.281Z,2.85
2022-09-11T13:59:58.704Z,3.05
2022-09-11T14:02:34.611Z,1.60
2022-09-11T14:05:13.790Z,1.50
2022-09-11T14:08:00.638Z,1.23
2022-09-11T14:10:44.101Z,2.60
2022-09-11T14:13:27.593Z,1.20
2022-09-11T14:16:07.373Z,1.60
2022-09-11T14:18:48.224Z,2.22
2022-09-11T14:21:18.387Z,2.40
2022-09-11T14:23:50.302Z,2.35
2022-09-11T14:26:19.811Z,2.28
2022-09-11T14:28:46.202Z,2.22
2022-09-11T14:31:14.466Z,2.20
2022-09-11T14:33:41.824Z,1.60
2022-09-11T14:36:19.633Z,1.70
2022-09-11T14:38:47.579Z,3.75
2022-09-11T14:41:13.987Z,58.20
2022-09-11T14:43:40.616Z,4.15
2022-09-11T14:46:07.244Z,3.87
2022-09-11T14:48:35.115Z,2.88
2022-09-11T14:51:08.854Z,3.03
2022-09-11T14:53:37.787Z,3.03
2022-09-11T14:56:04.882Z,2.25
2022-09-11T14:58:31.323Z,2.13
2022-09-11T15:00:58.061Z,2.95
2022-09-11T15:03:25.503Z,2.67
2022-09-11T15:05:55.678Z,1.80
2022-09-11T15:08:22.670Z,2.17
2022-09-11T15:10:50.798Z,1.77
2022-09-11T15:13:17.133Z,2.15
2022-09-11T15:15:43.595Z,2.03
2022-09-11T15:18:09.988Z,3.70
2022-09-11T15:20:36.337Z,2.00
2022-09-11T15:23:03.856Z,1.60
2022-09-11T15:25:32.663Z,1.33
2022-09-11T15:27:59.248Z,2.70
2022-09-11T15:30:27.632Z,2.40
2022-09-11T15:32:54.279Z,2.55
2022-09-11T15:35:23.238Z,2.13
2022-09-11T15:37:49.598Z,2.03
2022-09-11T15:40:16.876Z,3.90
2022-09-11T15:42:43.263Z,2.28
2022-09-11T15:45:10.143Z,3.92
2022-09-11T15:47:39.229Z,3.53
2022-09-11T15:50:06.058Z,1.75
2022-09-11T15:52:34.292Z,3.60
2022-09-11T15:55:01.120Z,2.22
2022-09-11T15:57:29.989Z,2.42
2022-09-11T15:59:57.239Z,2.73
2022-09-11T16:02:23.958Z,2.60
2022-09-11T16:04:53.743Z,3.10
2022-09-11T16:07:20.584Z,1.80
2022-09-11T16:09:46.907Z,3.78
2022-09-11T16:12:15.582Z,2.33
2022-09-11T16:14:42.378Z,3.83
2022-09-11T16:17:09.065Z,2.60
2022-09-11T16:19:36.483Z,2.70
2022-09-11T16:22:05.082Z,2.65
2022-09-11T16:24:37.097Z,4.10
2022-09-11T16:27:06.592Z,3.05
2022-09-11T16:29:59.069Z,2.05
2022-09-11T16:32:28.203Z,2.65
2022-09-11T16:34:57.044Z,1.83
2022-09-11T16:37:23.626Z,1.77
2022-09-11T16:39:50.694Z,1.50
2022-09-11T16:42:21.248Z,3.47
2022-09-11T16:44:48.551Z,2.15
2022-09-11T16:47:16.294Z,2.28
2022-09-11T16:52:29.175Z,2.35
2022-09-11T16:54:55.471Z,2.08
2022-09-11T16:57:21.793Z,1.85
2022-09-11T16:59:48.328Z,4.45
2022-09-11T17:02:14.670Z,3.03
2022-09-11T17:04:41.071Z,2.83
2022-09-11T17:07:07.424Z,2.50
2022-09-11T17:09:33.793Z,4.03
2022-09-11T17:12:00.179Z,2.65
2022-09-11T17:14:28.365Z,2.90
2022-09-11T17:16:54.762Z,1.90
2022-09-11T17:19:21.155Z,3.22
2022-09-11T17:21:47.614Z,4.15
2022-09-11T17:24:17.822Z,1.95
2022-09-11T17:26:44.131Z,3.40
2022-09-11T17:29:10.475Z,2.53
2022-09-11T17:31:37.047Z,3.10
2022-09-11T17:34:03.850Z,2.05
2022-09-11T17:36:30.404Z,1.60
2022-09-11T17:38:59.234Z,2.73
2022-09-11T17:41:25.790Z,3.35
2022-09-11T17:43:52.182Z,3.13
2022-09-11T17:46:21.564Z,2.55
2022-09-11T17:48:48.324Z,3.03
2022-09-11T17:51:22.228Z,2.63
2022-09-11T17:53:52.130Z,3.08
2022-09-11T17:56:21.682Z,2.05
2022-09-11T17:58:59.689Z,3.38
2022-09-11T18:01:28.582Z,2.40
2022-09-11T18:03:59.470Z,2.70
2022-09-11T18:06:29.308Z,3.08
2022-09-11T18:09:02.749Z,6.05
2022-09-11T18:11:30.324Z,5.68
2022-09-11T18:13:58.328Z,3.83
2022-09-11T18:16:25.163Z,3.23
2022-09-11T18:18:51.731Z,3.58
2022-09-11T18:21:18.157Z,4.68
2022-09-11T18:23:46.088Z,2.53
2022-09-11T18:26:29.719Z,2.72
2022-09-11T18:29:02.239Z,3.13
2022-09-11T18:31:37.021Z,4.28
2022-09-11T18:34:03.733Z,4.57
2022-09-11T18:36:31.387Z,3.05
2022-09-11T18:39:01.025Z,4.57
2022-09-11T18:41:29.253Z,2.70
2022-09-11T18:43:56.689Z,3.30
2022-09-11T18:46:23.792Z,2.72
2022-09-11T18:48:51.193Z,3.22
2022-09-11T18:51:19.771Z,3.33
2022-09-11T18:53:53.550Z,3.57
2022-09-11T18:56:22.275Z,3.80
2022-09-11T18:58:52.056Z,3.65
2022-09-11T19:01:22.639Z,3.50
2022-09-11T19:03:50.257Z,5.68
2022-09-11T19:06:19.534Z,4.47
2022-09-11T19:08:47.844Z,3.47
2022-09-11T19:11:17.099Z,3.53
2022-09-11T19:13:47.319Z,4.05
2022-09-11T19:16:14.653Z,3.63
2022-09-11T19:18:41.648Z,4.50
2022-09-11T19:21:12.057Z,4.88
2022-09-11T19:23:42.209Z,3.92
2022-09-11T19:26:39.516Z,5.25
2022-09-11T19:29:08.670Z,4.75
2022-09-11T19:31:36.852Z,3.87
2022-09-11T19:34:03.496Z,4.93
2022-09-11T19:36:32.416Z,4.13
2022-09-11T19:39:00.455Z,4.57
2022-09-11T19:41:30.553Z,4.88
2022-09-11T19:44:02.947Z,3.80
2022-09-11T19:46:33.079Z,3.97
2022-09-11T19:49:03.054Z,3.85
2022-09-11T19:51:31.897Z,4.40
2022-09-11T19:54:00.627Z,5.60
2022-09-11T19:56:28.901Z,5.33
2022-09-11T19:58:55.669Z,7.35
2022-09-11T20:01:24.759Z,6.80
2022-09-11T20:03:55.548Z,5.57
2022-09-11T20:06:25.367Z,5.43
2022-09-11T20:09:07.666Z,5.80
2022-09-11T20:11:40.256Z,6.45
2022-09-11T20:14:06.908Z,6.68
2022-09-11T20:16:33.677Z,7.65
2022-09-11T20:19:09.285Z,7.38
2022-09-11T20:21:36.269Z,4.80
2022-09-11T20:24:04.891Z,6.90
2022-09-11T20:26:32.339Z,7.97
2022-09-11T20:29:07.905Z,6.80
2022-09-11T20:31:44.832Z,4.75
2022-09-11T20:34:13.896Z,7.77
2022-09-11T20:36:40.303Z,6.53
2022-09-11T20:39:07.000Z,7.38
2022-09-11T20:41:33.447Z,7.55
2022-09-11T20:44:03.434Z,6.28
2022-09-11T20:46:30.007Z,7.67
2022-09-11T20:48:57.163Z,6.60
2022-09-11T20:51:24.335Z,6.70
2022-09-11T20:53:51.759Z,5.75
2022-09-11T20:56:22.128Z,7.05
2022-09-11T20:58:48.958Z,7.53
2022-09-11T21:01:22.393Z,6.35
2022-09-11T21:03:57.217Z,8.10
2022-09-11T21:06:26.889Z,7.10
2022-09-11T21:08:57.145Z,7.50
2022-09-11T21:11:28.056Z,8.10
2022-09-11T21:13:54.927Z,8.75
2022-09-11T21:16:22.049Z,8.52
2022-09-11T21:18:54.282Z,9.50
2022-09-11T21:21:22.208Z,9.02
2022-09-11T21:23:49.404Z,13.60
2022-09-11T21:26:17.570Z,10.90
2022-09-11T21:28:44.490Z,10.73
2022-09-11T21:31:11.987Z,8.93
2022-09-11T21:33:38.919Z,8.40
2022-09-11T21:36:08.630Z,8.63
2022-09-11T21:38:36.752Z,11.77
2022-09-11T21:41:06.439Z,10.20
2022-09-11T21:43:33.335Z,10.95
2022-09-11T21:46:00.158Z,9.07
2022-09-11T21:48:26.940Z,10.27
2022-09-11T21:50:55.074Z,7.78
2022-09-11T21:53:21.897Z,11.98
2022-09-11T21:55:49.021Z,12.15
2022-09-11T21:58:20.830Z,9.82
2022-09-11T22:00:48.541Z,9.83
2022-09-11T22:03:17.076Z,12.43
2022-09-11T22:05:45.896Z,10.63
2022-09-11T22:08:14.529Z,12.50
2022-09-11T22:10:45.945Z,13.13
2022-09-11T22:13:13.205Z,9.70
2022-09-11T22:15:44.050Z,10.95
2022-09-11T22:18:11.226Z,10.23
2022-09-11T22:20:38.564Z,12.15
2022-09-11T22:23:05.737Z,12.15
2022-09-11T22:25:33.756Z,9.37
2022-09-11T22:28:00.520Z,10.75
2022-09-11T22:30:28.062Z,9.50
2022-09-11T22:32:55.135Z,11.10
2022-09-11T22:35:21.693Z,11.40
2022-09-11T22:37:48.352Z,13.93
2022-09-11T22:40:15.228Z,14.68
2022-09-11T22:42:41.760Z,13.75
2022-09-11T22:45:08.719Z,12.18
2022-09-11T22:47:35.214Z,12.50
2022-09-11T22:50:01.872Z,13.60
2022-09-11T22:52:28.380Z,12.50
2022-09-11T22:54:54.909Z,13.65
2022-09-11T22:57:21.411Z,14.43
2022-09-11T22:59:48.072Z,13.63
2022-09-11T23:02:15.113Z,14.90
2022-09-11T23:05:01.579Z,13.38
2022-09-11T23:07:28.121Z,15.15
2022-09-11T23:09:55.797Z,14.30
2022-09-11T23:12:22.624Z,13.45
2022-09-11T23:14:49.101Z,14.53
2022-09-11T23:17:15.563Z,15.20
2022-09-11T23:19:42.079Z,15.88
2022-09-11T23:22:08.466Z,15.43
2022-09-11T23:24:34.908Z,12.88
2022-09-11T23:27:01.566Z,16.80
2022-09-11T23:29:28.125Z,16.98
2022-09-11T23:31:56.740Z,15.60
2022-09-11T23:34:23.181Z,16.75
2022-09-11T23:36:49.766Z,19.23
2022-09-11T23:39:16.329Z,17.20
2022-09-11T23:41:42.904Z,16.45
2022-09-11T23:44:09.724Z,17.08
2022-09-11T23:46:36.428Z,18.65
2022-09-11T23:49:03.046Z,16.08
2022-09-11T23:51:29.486Z,19.27
2022-09-11T23:53:55.915Z,17.05
2022-09-11T23:56:22.723Z,16.15
2022-09-11T23:58:49.787Z,18.95
